CheckWX is a tool to help pilots better visualize weather data.  It is not intended as a substitute for an official pre-flight weather briefing.

02:15:12 UTC

1A9 METAR
Prattville - Grouby Field Airport
Prattville, Alabama, USA
Current

20 mins ago

K1A9 190155Z AUTO 00000KT 10SM SCT090 BKN110 27/21 A2995 RMK AO2 T02740210
Observed
Sep-19 @ 01:55 UTC
Visibility
10 SM
Flight Rules
VFR
Cloud Levels
  • Scattered at 9,000' AGL
  • Broken at 11,000' AGL
Temperature
27°C / 81°F
Dewpoint
21°C / 70°F
Heat Index
29°C / 85°F
Humidity
70%
Altimeter
29.95" Hg
Pressure
1014.22 hPa
Previous

40 mins ago

K1A9 190135Z AUTO 00000KT 10SM OVC090 28/21 A2995 RMK AO2 T02800211
Observed
Sep-19 @ 01:35 UTC
Visibility
10 SM
Flight Rules
VFR
Cloud Levels
  • Overcast at 9,000' AGL
Temperature
28°C / 82°F
Dewpoint
21°C / 70°F
Heat Index
30°C / 86°F
Humidity
66%
Altimeter
29.95" Hg
Pressure
1014.22 hPa
Previous

60 mins ago

K1A9 190115Z AUTO 00000KT 10SM BKN100 29/21 A2994 RMK AO2 T02870206
Observed
Sep-19 @ 01:15 UTC
Visibility
10 SM
Flight Rules
VFR
Cloud Levels
  • Broken at 10,000' AGL
Temperature
29°C / 84°F
Dewpoint
21°C / 70°F
Heat Index
31°C / 88°F
Humidity
62%
Altimeter
29.94" Hg
Pressure
1013.92 hPa